Aviation Digital Data Service (ADDS)

Output produced by TAFs form (2210 UTC 30 May 2016)
found at http://aviationweather.gov/adds/tafs/
 
KVEL 301722Z 3018/3118 VRB04KT P6SM FEW100 SCT250 
     FM302000 30008KT P6SM SCT100 SCT250 
     FM310200 36006KT P6SM FEW100 SCT250 
     FM311500 VRB03KT P6SM FEW250